sensor_id;sensor_type;location;lat;lon;timestamp;P1;durP1;ratioP1;P2;durP2;ratioP2
52956;SDS011;38819;42.692;23.342;2024-03-02T00:02:23;36.42;;;21.58;;
52956;SDS011;38819;42.692;23.342;2024-03-02T00:04:49;34.58;;;22.33;;
52956;SDS011;38819;42.692;23.342;2024-03-02T00:07:14;36.10;;;22.83;;
52956;SDS011;38819;42.692;23.342;2024-03-02T00:09:40;32.88;;;21.88;;
52956;SDS011;38819;42.692;23.342;2024-03-02T00:12:05;37.42;;;22.33;;
52956;SDS011;38819;42.692;23.342;2024-03-02T00:14:31;35.88;;;23.13;;
52956;SDS011;38819;42.692;23.342;2024-03-02T00:16:57;37.33;;;22.33;;
52956;SDS011;38819;42.692;23.342;2024-03-02T00:19:22;34.63;;;22.42;;
52956;SDS011;38819;42.692;23.342;2024-03-02T00:21:48;35.33;;;22.92;;
52956;SDS011;38819;42.692;23.342;2024-03-02T00:24:31;35.15;;;22.27;;
52956;SDS011;38819;42.692;23.342;2024-03-02T00:26:58;37.67;;;21.73;;
52956;SDS011;38819;42.692;23.342;2024-03-02T00:29:24;38.78;;;22.75;;
52956;SDS011;38819;42.692;23.342;2024-03-02T00:31:50;36.42;;;21.98;;
52956;SDS011;38819;42.692;23.342;2024-03-02T00:34:15;37.88;;;22.17;;
52956;SDS011;38819;42.692;23.342;2024-03-02T00:36:42;38.28;;;22.38;;
52956;SDS011;38819;42.692;23.342;2024-03-02T00:39:09;38.58;;;21.90;;
52956;SDS011;38819;42.692;23.342;2024-03-02T00:41:38;34.33;;;20.90;;
52956;SDS011;38819;42.692;23.342;2024-03-02T00:44:07;35.13;;;21.40;;
52956;SDS011;38819;42.692;23.342;2024-03-02T00:46:37;35.55;;;20.90;;
52956;SDS011;38819;42.692;23.342;2024-03-02T00:49:04;32.97;;;20.50;;
52956;SDS011;38819;42.692;23.342;2024-03-02T00:51:31;38.70;;;22.10;;
52956;SDS011;38819;42.692;23.342;2024-03-02T00:53:58;34.13;;;20.45;;
52956;SDS011;38819;42.692;23.342;2024-03-02T00:56:25;35.05;;;20.90;;
52956;SDS011;38819;42.692;23.342;2024-03-02T00:58:51;35.13;;;20.30;;
52956;SDS011;38819;42.692;23.342;2024-03-02T01:01:18;35.05;;;21.80;;
52956;SDS011;38819;42.692;23.342;2024-03-02T01:03:44;29.80;;;19.27;;
52956;SDS011;38819;42.692;23.342;2024-03-02T01:06:10;31.95;;;19.13;;
52956;SDS011;38819;42.692;23.342;2024-03-02T01:08:36;31.48;;;19.20;;
52956;SDS011;38819;42.692;23.342;2024-03-02T01:11:02;33.17;;;19.58;;
52956;SDS011;38819;42.692;23.342;2024-03-02T01:13:28;27.23;;;18.13;;
52956;SDS011;38819;42.692;23.342;2024-03-02T01:15:55;29.42;;;19.20;;
52956;SDS011;38819;42.692;23.342;2024-03-02T01:18:21;31.00;;;19.07;;
52956;SDS011;38819;42.692;23.342;2024-03-02T01:20:47;30.55;;;20.15;;
52956;SDS011;38819;42.692;23.342;2024-03-02T01:23:13;34.30;;;19.85;;
52956;SDS011;38819;42.692;23.342;2024-03-02T01:25:39;29.77;;;18.40;;
52956;SDS011;38819;42.692;23.342;2024-03-02T01:28:05;31.45;;;19.88;;
52956;SDS011;38819;42.692;23.342;2024-03-02T01:30:30;31.13;;;19.45;;
52956;SDS011;38819;42.692;23.342;2024-03-02T01:32:56;30.55;;;19.83;;
52956;SDS011;38819;42.692;23.342;2024-03-02T01:35:21;30.48;;;20.35;;
52956;SDS011;38819;42.692;23.342;2024-03-02T01:37:46;33.35;;;20.08;;
52956;SDS011;38819;42.692;23.342;2024-03-02T01:40:12;27.60;;;18.55;;
52956;SDS011;38819;42.692;23.342;2024-03-02T01:42:38;30.13;;;19.23;;
52956;SDS011;38819;42.692;23.342;2024-03-02T01:45:04;36.38;;;22.48;;
52956;SDS011;38819;42.692;23.342;2024-03-02T01:47:30;34.25;;;22.95;;
52956;SDS011;38819;42.692;23.342;2024-03-02T01:49:56;40.63;;;23.27;;
52956;SDS011;38819;42.692;23.342;2024-03-02T01:52:21;39.10;;;22.33;;
52956;SDS011;38819;42.692;23.342;2024-03-02T01:54:47;35.92;;;23.90;;
52956;SDS011;38819;42.692;23.342;2024-03-02T01:57:12;42.08;;;24.02;;
52956;SDS011;38819;42.692;23.342;2024-03-02T01:59:37;35.38;;;22.63;;
52956;SDS011;38819;42.692;23.342;2024-03-02T02:02:03;36.40;;;21.70;;
52956;SDS011;38819;42.692;23.342;2024-03-02T02:04:28;37.63;;;22.27;;
52956;SDS011;38819;42.692;23.342;2024-03-02T02:06:54;33.55;;;21.67;;
52956;SDS011;38819;42.692;23.342;2024-03-02T02:09:19;35.17;;;22.33;;
52956;SDS011;38819;42.692;23.342;2024-03-02T02:11:44;33.80;;;21.40;;
52956;SDS011;38819;42.692;23.342;2024-03-02T02:14:10;39.88;;;22.23;;
52956;SDS011;38819;42.692;23.342;2024-03-02T02:16:36;40.05;;;22.05;;
52956;SDS011;38819;42.692;23.342;2024-03-02T02:19:02;36.50;;;22.80;;
52956;SDS011;38819;42.692;23.342;2024-03-02T02:21:28;38.03;;;21.75;;
52956;SDS011;38819;42.692;23.342;2024-03-02T02:23:53;36.22;;;22.25;;
52956;SDS011;38819;42.692;23.342;2024-03-02T02:26:18;33.38;;;21.73;;
52956;SDS011;38819;42.692;23.342;2024-03-02T02:28:44;40.33;;;24.13;;
52956;SDS011;38819;42.692;23.342;2024-03-02T02:31:14;34.65;;;22.88;;
52956;SDS011;38819;42.692;23.342;2024-03-02T02:33:40;35.88;;;23.55;;
52956;SDS011;38819;42.692;23.342;2024-03-02T02:36:06;39.13;;;23.80;;
52956;SDS011;38819;42.692;23.342;2024-03-02T02:38:32;37.13;;;21.92;;
52956;SDS011;38819;42.692;23.342;2024-03-02T02:41:01;38.22;;;23.13;;
52956;SDS011;38819;42.692;23.342;2024-03-02T02:43:26;37.17;;;22.40;;
52956;SDS011;38819;42.692;23.342;2024-03-02T02:45:51;38.35;;;23.75;;
52956;SDS011;38819;42.692;23.342;2024-03-02T02:48:17;40.95;;;23.90;;
52956;SDS011;38819;42.692;23.342;2024-03-02T02:50:42;36.72;;;22.70;;
52956;SDS011;38819;42.692;23.342;2024-03-02T02:53:07;41.03;;;23.52;;
52956;SDS011;38819;42.692;23.342;2024-03-02T02:55:35;37.03;;;22.63;;
52956;SDS011;38819;42.692;23.342;2024-03-02T02:58:05;37.70;;;22.85;;
52956;SDS011;38819;42.692;23.342;2024-03-02T03:00:33;39.53;;;23.48;;
52956;SDS011;38819;42.692;23.342;2024-03-02T03:02:58;41.42;;;23.45;;
52956;SDS011;38819;42.692;23.342;2024-03-02T03:05:24;35.83;;;23.42;;
52956;SDS011;38819;42.692;23.342;2024-03-02T03:07:49;38.28;;;23.60;;
52956;SDS011;38819;42.692;23.342;2024-03-02T03:10:15;43.38;;;24.92;;
52956;SDS011;38819;42.692;23.342;2024-03-02T03:12:41;43.10;;;25.92;;
52956;SDS011;38819;42.692;23.342;2024-03-02T03:15:10;57.00;;;32.22;;
52956;SDS011;38819;42.692;23.342;2024-03-02T03:17:36;66.28;;;41.10;;
52956;SDS011;38819;42.692;23.342;2024-03-02T03:20:02;59.70;;;38.40;;
52956;SDS011;38819;42.692;23.342;2024-03-02T03:22:29;56.22;;;32.38;;
52956;SDS011;38819;42.692;23.342;2024-03-02T03:24:56;58.78;;;36.05;;
52956;SDS011;38819;42.692;23.342;2024-03-02T03:27:22;58.90;;;35.13;;
52956;SDS011;38819;42.692;23.342;2024-03-02T03:29:47;55.95;;;34.05;;
52956;SDS011;38819;42.692;23.342;2024-03-02T03:32:12;46.58;;;31.83;;
52956;SDS011;38819;42.692;23.342;2024-03-02T03:34:38;50.80;;;31.15;;
52956;SDS011;38819;42.692;23.342;2024-03-02T03:37:03;54.75;;;31.83;;
52956;SDS011;38819;42.692;23.342;2024-03-02T03:39:29;43.17;;;28.08;;
52956;SDS011;38819;42.692;23.342;2024-03-02T03:41:54;46.65;;;26.00;;
52956;SDS011;38819;42.692;23.342;2024-03-02T03:44:20;47.67;;;25.25;;
52956;SDS011;38819;42.692;23.342;2024-03-02T03:46:45;45.17;;;25.65;;
52956;SDS011;38819;42.692;23.342;2024-03-02T03:49:10;46.40;;;25.60;;
52956;SDS011;38819;42.692;23.342;2024-03-02T03:51:36;41.67;;;25.98;;
52956;SDS011;38819;42.692;23.342;2024-03-02T03:54:01;44.42;;;26.50;;
52956;SDS011;38819;42.692;23.342;2024-03-02T03:56:27;44.22;;;24.63;;
52956;SDS011;38819;42.692;23.342;2024-03-02T03:58:52;42.22;;;25.42;;
52956;SDS011;38819;42.692;23.342;2024-03-02T04:01:18;42.63;;;25.70;;
52956;SDS011;38819;42.692;23.342;2024-03-02T04:03:43;47.33;;;27.17;;
52956;SDS011;38819;42.692;23.342;2024-03-02T04:06:09;44.08;;;26.48;;
52956;SDS011;38819;42.692;23.342;2024-03-02T04:08:34;48.60;;;26.52;;
52956;SDS011;38819;42.692;23.342;2024-03-02T04:10:59;43.88;;;24.92;;
52956;SDS011;38819;42.692;23.342;2024-03-02T04:13:25;42.92;;;25.10;;
52956;SDS011;38819;42.692;23.342;2024-03-02T04:15:50;41.67;;;25.55;;
52956;SDS011;38819;42.692;23.342;2024-03-02T04:18:16;42.75;;;26.23;;
52956;SDS011;38819;42.692;23.342;2024-03-02T04:20:41;48.22;;;25.15;;
52956;SDS011;38819;42.692;23.342;2024-03-02T04:23:07;45.00;;;26.67;;
52956;SDS011;38819;42.692;23.342;2024-03-02T04:25:33;41.92;;;24.90;;
52956;SDS011;38819;42.692;23.342;2024-03-02T04:27:58;38.50;;;25.05;;
52956;SDS011;38819;42.692;23.342;2024-03-02T04:30:23;42.30;;;24.23;;
52956;SDS011;38819;42.692;23.342;2024-03-02T04:32:50;40.28;;;25.65;;
52956;SDS011;38819;42.692;23.342;2024-03-02T04:35:15;42.35;;;24.55;;
52956;SDS011;38819;42.692;23.342;2024-03-02T04:37:41;42.78;;;24.08;;
52956;SDS011;38819;42.692;23.342;2024-03-02T04:40:06;47.05;;;24.58;;
52956;SDS011;38819;42.692;23.342;2024-03-02T04:42:35;40.90;;;24.65;;
52956;SDS011;38819;42.692;23.342;2024-03-02T04:45:19;36.08;;;22.55;;
52956;SDS011;38819;42.692;23.342;2024-03-02T04:47:45;40.30;;;23.70;;
52956;SDS011;38819;42.692;23.342;2024-03-02T04:50:10;43.80;;;24.38;;
52956;SDS011;38819;42.692;23.342;2024-03-02T04:52:36;47.55;;;24.02;;
52956;SDS011;38819;42.692;23.342;2024-03-02T04:55:01;39.90;;;22.95;;
52956;SDS011;38819;42.692;23.342;2024-03-02T04:57:53;43.17;;;23.10;;
52956;SDS011;38819;42.692;23.342;2024-03-02T05:00:22;42.05;;;24.17;;
52956;SDS011;38819;42.692;23.342;2024-03-02T05:02:47;44.65;;;24.25;;
52956;SDS011;38819;42.692;23.342;2024-03-02T05:05:12;44.20;;;27.52;;
52956;SDS011;38819;42.692;23.342;2024-03-02T05:10:07;38.92;;;22.48;;
52956;SDS011;38819;42.692;23.342;2024-03-02T05:12:33;42.70;;;23.73;;
52956;SDS011;38819;42.692;23.342;2024-03-02T05:15:08;45.03;;;23.67;;
52956;SDS011;38819;42.692;23.342;2024-03-02T05:17:35;43.60;;;24.83;;
52956;SDS011;38819;42.692;23.342;2024-03-02T05:20:00;43.42;;;25.05;;
52956;SDS011;38819;42.692;23.342;2024-03-02T05:22:26;42.22;;;23.27;;
52956;SDS011;38819;42.692;23.342;2024-03-02T05:24:51;44.30;;;24.15;;
52956;SDS011;38819;42.692;23.342;2024-03-02T05:27:17;45.65;;;26.83;;
52956;SDS011;38819;42.692;23.342;2024-03-02T05:29:42;41.97;;;23.45;;
52956;SDS011;38819;42.692;23.342;2024-03-02T05:32:07;49.47;;;25.95;;
52956;SDS011;38819;42.692;23.342;2024-03-02T05:34:33;40.20;;;24.83;;
52956;SDS011;38819;42.692;23.342;2024-03-02T05:37:00;44.72;;;24.55;;
52956;SDS011;38819;42.692;23.342;2024-03-02T05:39:26;48.13;;;25.77;;
52956;SDS011;38819;42.692;23.342;2024-03-02T05:41:51;45.58;;;24.40;;
52956;SDS011;38819;42.692;23.342;2024-03-02T05:44:16;45.17;;;25.42;;
52956;SDS011;38819;42.692;23.342;2024-03-02T05:46:43;43.80;;;26.13;;
52956;SDS011;38819;42.692;23.342;2024-03-02T05:49:15;40.95;;;23.85;;
52956;SDS011;38819;42.692;23.342;2024-03-02T05:51:41;43.58;;;24.35;;
52956;SDS011;38819;42.692;23.342;2024-03-02T05:54:06;44.47;;;24.52;;
52956;SDS011;38819;42.692;23.342;2024-03-02T05:56:32;44.05;;;24.80;;
52956;SDS011;38819;42.692;23.342;2024-03-02T05:58:57;49.17;;;24.95;;
52956;SDS011;38819;42.692;23.342;2024-03-02T06:01:39;43.70;;;24.42;;
52956;SDS011;38819;42.692;23.342;2024-03-02T06:04:05;43.38;;;26.45;;
52956;SDS011;38819;42.692;23.342;2024-03-02T06:06:30;45.60;;;25.25;;
52956;SDS011;38819;42.692;23.342;2024-03-02T06:08:59;48.33;;;25.40;;
52956;SDS011;38819;42.692;23.342;2024-03-02T06:11:24;52.15;;;27.50;;
52956;SDS011;38819;42.692;23.342;2024-03-02T06:13:50;51.13;;;28.17;;
52956;SDS011;38819;42.692;23.342;2024-03-02T06:16:15;55.35;;;29.15;;
52956;SDS011;38819;42.692;23.342;2024-03-02T06:18:40;53.00;;;28.08;;
52956;SDS011;38819;42.692;23.342;2024-03-02T06:21:06;49.72;;;28.70;;
52956;SDS011;38819;42.692;23.342;2024-03-02T06:23:31;55.13;;;27.48;;
52956;SDS011;38819;42.692;23.342;2024-03-02T06:25:57;48.35;;;27.40;;
52956;SDS011;38819;42.692;23.342;2024-03-02T06:28:22;53.33;;;28.42;;
52956;SDS011;38819;42.692;23.342;2024-03-02T06:30:48;56.28;;;28.88;;
52956;SDS011;38819;42.692;23.342;2024-03-02T06:33:13;48.97;;;27.33;;
52956;SDS011;38819;42.692;23.342;2024-03-02T06:35:38;55.13;;;29.58;;
52956;SDS011;38819;42.692;23.342;2024-03-02T06:38:04;51.17;;;28.52;;
52956;SDS011;38819;42.692;23.342;2024-03-02T06:40:29;55.25;;;30.10;;
52956;SDS011;38819;42.692;23.342;2024-03-02T06:42:55;57.78;;;29.85;;
52956;SDS011;38819;42.692;23.342;2024-03-02T06:45:20;55.88;;;28.58;;
52956;SDS011;38819;42.692;23.342;2024-03-02T06:47:45;56.53;;;30.23;;
52956;SDS011;38819;42.692;23.342;2024-03-02T06:50:11;55.88;;;28.27;;
52956;SDS011;38819;42.692;23.342;2024-03-02T06:52:36;52.78;;;29.10;;
52956;SDS011;38819;42.692;23.342;2024-03-02T06:55:02;50.50;;;28.65;;
52956;SDS011;38819;42.692;23.342;2024-03-02T06:57:29;55.28;;;28.58;;
52956;SDS011;38819;42.692;23.342;2024-03-02T06:59:55;60.85;;;33.20;;
52956;SDS011;38819;42.692;23.342;2024-03-02T07:02:23;64.90;;;32.88;;
52956;SDS011;38819;42.692;23.342;2024-03-02T07:04:50;54.30;;;30.30;;
52956;SDS011;38819;42.692;23.342;2024-03-02T07:07:16;54.55;;;28.40;;
52956;SDS011;38819;42.692;23.342;2024-03-02T07:09:41;56.75;;;28.60;;
52956;SDS011;38819;42.692;23.342;2024-03-02T07:12:07;46.35;;;26.52;;
52956;SDS011;38819;42.692;23.342;2024-03-02T07:14:32;46.50;;;26.75;;
52956;SDS011;38819;42.692;23.342;2024-03-02T07:17:16;52.83;;;28.45;;
52956;SDS011;38819;42.692;23.342;2024-03-02T07:19:41;51.53;;;28.00;;
52956;SDS011;38819;42.692;23.342;2024-03-02T07:22:07;47.90;;;26.17;;
52956;SDS011;38819;42.692;23.342;2024-03-02T07:24:39;45.35;;;25.63;;
52956;SDS011;38819;42.692;23.342;2024-03-02T07:27:11;42.90;;;25.08;;
52956;SDS011;38819;42.692;23.342;2024-03-02T07:29:38;41.10;;;24.42;;
52956;SDS011;38819;42.692;23.342;2024-03-02T07:32:04;47.35;;;25.77;;
52956;SDS011;38819;42.692;23.342;2024-03-02T07:34:30;46.47;;;26.92;;
52956;SDS011;38819;42.692;23.342;2024-03-02T07:36:55;53.92;;;27.98;;
52956;SDS011;38819;42.692;23.342;2024-03-02T07:39:21;52.72;;;27.65;;
52956;SDS011;38819;42.692;23.342;2024-03-02T07:41:47;52.30;;;27.92;;
52956;SDS011;38819;42.692;23.342;2024-03-02T07:44:13;50.75;;;26.75;;
52956;SDS011;38819;42.692;23.342;2024-03-02T07:46:41;53.22;;;27.40;;
52956;SDS011;38819;42.692;23.342;2024-03-02T07:49:08;47.40;;;26.42;;
52956;SDS011;38819;42.692;23.342;2024-03-02T07:51:34;45.38;;;24.35;;
52956;SDS011;38819;42.692;23.342;2024-03-02T07:53:59;45.45;;;26.35;;
52956;SDS011;38819;42.692;23.342;2024-03-02T07:56:24;55.35;;;27.45;;
52956;SDS011;38819;42.692;23.342;2024-03-02T07:58:50;51.80;;;25.38;;
52956;SDS011;38819;42.692;23.342;2024-03-02T08:01:15;50.30;;;27.25;;
52956;SDS011;38819;42.692;23.342;2024-03-02T08:03:42;51.70;;;26.37;;
52956;SDS011;38819;42.692;23.342;2024-03-02T08:06:08;48.00;;;26.20;;
52956;SDS011;38819;42.692;23.342;2024-03-02T08:08:33;48.20;;;26.90;;
52956;SDS011;38819;42.692;23.342;2024-03-02T08:10:59;53.25;;;26.90;;
52956;SDS011;38819;42.692;23.342;2024-03-02T08:13:24;53.22;;;28.17;;
52956;SDS011;38819;42.692;23.342;2024-03-02T08:15:49;53.45;;;27.95;;
52956;SDS011;38819;42.692;23.342;2024-03-02T08:18:15;48.40;;;26.10;;
52956;SDS011;38819;42.692;23.342;2024-03-02T08:20:40;52.63;;;27.25;;
52956;SDS011;38819;42.692;23.342;2024-03-02T08:23:06;51.80;;;27.02;;
52956;SDS011;38819;42.692;23.342;2024-03-02T08:25:32;49.38;;;25.92;;
52956;SDS011;38819;42.692;23.342;2024-03-02T08:27:58;52.13;;;28.02;;
52956;SDS011;38819;42.692;23.342;2024-03-02T08:30:23;55.17;;;26.20;;
52956;SDS011;38819;42.692;23.342;2024-03-02T08:32:48;54.03;;;27.23;;
52956;SDS011;38819;42.692;23.342;2024-03-02T08:35:14;48.20;;;26.77;;
52956;SDS011;38819;42.692;23.342;2024-03-02T08:37:40;48.15;;;26.92;;
52956;SDS011;38819;42.692;23.342;2024-03-02T08:40:07;60.03;;;28.17;;
52956;SDS011;38819;42.692;23.342;2024-03-02T08:42:33;49.42;;;26.10;;
52956;SDS011;38819;42.692;23.342;2024-03-02T08:44:58;47.03;;;26.65;;
52956;SDS011;38819;42.692;23.342;2024-03-02T08:47:26;52.78;;;27.73;;
52956;SDS011;38819;42.692;23.342;2024-03-02T08:49:52;46.20;;;26.50;;
52956;SDS011;38819;42.692;23.342;2024-03-02T08:52:17;48.88;;;27.52;;
52956;SDS011;38819;42.692;23.342;2024-03-02T08:54:43;52.70;;;27.80;;
52956;SDS011;38819;42.692;23.342;2024-03-02T08:57:08;50.28;;;27.38;;
52956;SDS011;38819;42.692;23.342;2024-03-02T08:59:33;51.28;;;27.25;;
52956;SDS011;38819;42.692;23.342;2024-03-02T09:01:59;45.60;;;26.15;;
52956;SDS011;38819;42.692;23.342;2024-03-02T09:04:24;46.22;;;26.23;;
52956;SDS011;38819;42.692;23.342;2024-03-02T09:06:50;46.05;;;26.52;;
52956;SDS011;38819;42.692;23.342;2024-03-02T09:09:15;43.72;;;26.48;;
52956;SDS011;38819;42.692;23.342;2024-03-02T09:11:41;44.65;;;26.15;;
52956;SDS011;38819;42.692;23.342;2024-03-02T09:14:06;47.70;;;27.75;;
52956;SDS011;38819;42.692;23.342;2024-03-02T09:16:31;49.38;;;27.88;;
52956;SDS011;38819;42.692;23.342;2024-03-02T09:18:57;47.72;;;27.92;;
52956;SDS011;38819;42.692;23.342;2024-03-02T09:21:23;45.97;;;26.27;;
52956;SDS011;38819;42.692;23.342;2024-03-02T09:23:48;46.88;;;26.70;;
52956;SDS011;38819;42.692;23.342;2024-03-02T09:26:14;43.55;;;25.10;;
52956;SDS011;38819;42.692;23.342;2024-03-02T09:28:43;52.63;;;29.15;;
52956;SDS011;38819;42.692;23.342;2024-03-02T09:31:09;50.30;;;28.45;;
52956;SDS011;38819;42.692;23.342;2024-03-02T09:33:34;54.03;;;27.55;;
52956;SDS011;38819;42.692;23.342;2024-03-02T09:35:59;41.78;;;25.05;;
52956;SDS011;38819;42.692;23.342;2024-03-02T09:38:25;44.63;;;26.13;;
52956;SDS011;38819;42.692;23.342;2024-03-02T09:40:51;45.38;;;25.65;;
52956;SDS011;38819;42.692;23.342;2024-03-02T09:43:16;45.78;;;24.85;;
52956;SDS011;38819;42.692;23.342;2024-03-02T09:45:42;47.88;;;27.10;;
52956;SDS011;38819;42.692;23.342;2024-03-02T09:48:08;46.35;;;27.52;;
52956;SDS011;38819;42.692;23.342;2024-03-02T09:50:33;44.67;;;26.25;;
52956;SDS011;38819;42.692;23.342;2024-03-02T09:52:59;46.13;;;25.77;;
52956;SDS011;38819;42.692;23.342;2024-03-02T09:55:24;43.55;;;26.52;;
52956;SDS011;38819;42.692;23.342;2024-03-02T09:57:50;41.70;;;24.85;;
52956;SDS011;38819;42.692;23.342;2024-03-02T10:00:16;47.00;;;25.63;;
52956;SDS011;38819;42.692;23.342;2024-03-02T10:02:42;40.63;;;24.05;;
52956;SDS011;38819;42.692;23.342;2024-03-02T10:05:11;43.42;;;22.83;;
52956;SDS011;38819;42.692;23.342;2024-03-02T10:07:39;42.90;;;24.45;;
52956;SDS011;38819;42.692;23.342;2024-03-02T10:10:14;45.65;;;24.92;;
52956;SDS011;38819;42.692;23.342;2024-03-02T10:12:40;45.45;;;23.85;;
52956;SDS011;38819;42.692;23.342;2024-03-02T10:15:06;45.15;;;24.60;;
52956;SDS011;38819;42.692;23.342;2024-03-02T10:17:32;48.33;;;24.70;;
52956;SDS011;38819;42.692;23.342;2024-03-02T10:19:58;45.30;;;24.73;;
52956;SDS011;38819;42.692;23.342;2024-03-02T10:22:23;39.72;;;24.13;;
52956;SDS011;38819;42.692;23.342;2024-03-02T10:24:49;45.72;;;24.63;;
52956;SDS011;38819;42.692;23.342;2024-03-02T10:27:19;44.70;;;25.23;;
52956;SDS011;38819;42.692;23.342;2024-03-02T10:29:48;44.78;;;24.05;;
52956;SDS011;38819;42.692;23.342;2024-03-02T10:32:14;42.50;;;22.92;;
52956;SDS011;38819;42.692;23.342;2024-03-02T10:34:41;39.13;;;22.75;;
52956;SDS011;38819;42.692;23.342;2024-03-02T10:37:07;27.20;;;15.67;;
52956;SDS011;38819;42.692;23.342;2024-03-02T10:39:36;44.83;;;23.00;;
52956;SDS011;38819;42.692;23.342;2024-03-02T10:42:03;43.60;;;21.35;;
52956;SDS011;38819;42.692;23.342;2024-03-02T10:44:29;40.55;;;21.48;;
52956;SDS011;38819;42.692;23.342;2024-03-02T10:46:56;39.33;;;22.45;;
52956;SDS011;38819;42.692;23.342;2024-03-02T10:49:24;38.53;;;22.20;;
52956;SDS011;38819;42.692;23.342;2024-03-02T10:51:51;41.47;;;24.13;;
52956;SDS011;38819;42.692;23.342;2024-03-02T10:54:17;41.53;;;23.23;;
52956;SDS011;38819;42.692;23.342;2024-03-02T10:56:44;43.70;;;24.85;;
52956;SDS011;38819;42.692;23.342;2024-03-02T11:01:39;43.75;;;22.45;;
52956;SDS011;38819;42.692;23.342;2024-03-02T11:04:08;37.67;;;22.42;;
52956;SDS011;38819;42.692;23.342;2024-03-02T11:06:37;41.58;;;22.98;;
52956;SDS011;38819;42.692;23.342;2024-03-02T11:09:06;36.35;;;21.65;;
52956;SDS011;38819;42.692;23.342;2024-03-02T11:11:36;43.95;;;21.88;;
52956;SDS011;38819;42.692;23.342;2024-03-02T11:14:06;43.42;;;20.95;;
52956;SDS011;38819;42.692;23.342;2024-03-02T11:16:36;36.55;;;21.58;;
52956;SDS011;38819;42.692;23.342;2024-03-02T11:19:13;35.38;;;21.98;;
52956;SDS011;38819;42.692;23.342;2024-03-02T11:21:40;35.35;;;21.25;;
52956;SDS011;38819;42.692;23.342;2024-03-02T11:26:46;33.28;;;20.02;;
52956;SDS011;38819;42.692;23.342;2024-03-02T11:29:42;35.00;;;20.20;;
52956;SDS011;38819;42.692;23.342;2024-03-02T11:32:06;34.58;;;19.70;;
52956;SDS011;38819;42.692;23.342;2024-03-02T11:34:39;39.22;;;20.85;;
52956;SDS011;38819;42.692;23.342;2024-03-02T11:37:10;43.15;;;21.98;;
52956;SDS011;38819;42.692;23.342;2024-03-02T11:39:35;40.17;;;22.40;;
52956;SDS011;38819;42.692;23.342;2024-03-02T11:42:05;41.33;;;22.08;;
52956;SDS011;38819;42.692;23.342;2024-03-02T11:46:58;41.63;;;21.10;;
52956;SDS011;38819;42.692;23.342;2024-03-02T11:49:41;37.55;;;20.02;;
52956;SDS011;38819;42.692;23.342;2024-03-02T11:52:11;40.83;;;20.58;;
52956;SDS011;38819;42.692;23.342;2024-03-02T11:54:38;40.05;;;20.27;;
52956;SDS011;38819;42.692;23.342;2024-03-02T11:57:05;41.95;;;21.70;;
52956;SDS011;38819;42.692;23.342;2024-03-02T11:59:34;37.35;;;20.63;;
52956;SDS011;38819;42.692;23.342;2024-03-02T12:02:00;36.88;;;20.77;;
52956;SDS011;38819;42.692;23.342;2024-03-02T12:04:25;33.72;;;19.58;;
52956;SDS011;38819;42.692;23.342;2024-03-02T12:07:00;38.17;;;20.83;;
52956;SDS011;38819;42.692;23.342;2024-03-02T12:09:29;35.38;;;19.55;;
52956;SDS011;38819;42.692;23.342;2024-03-02T12:12:13;37.88;;;20.58;;
52956;SDS011;38819;42.692;23.342;2024-03-02T12:14:49;40.58;;;23.00;;
52956;SDS011;38819;42.692;23.342;2024-03-02T12:17:20;34.40;;;19.83;;
52956;SDS011;38819;42.692;23.342;2024-03-02T12:19:46;34.40;;;18.55;;
52956;SDS011;38819;42.692;23.342;2024-03-02T12:22:12;30.67;;;19.08;;
52956;SDS011;38819;42.692;23.342;2024-03-02T12:24:37;32.00;;;19.10;;
52956;SDS011;38819;42.692;23.342;2024-03-02T12:27:03;29.38;;;18.98;;
52956;SDS011;38819;42.692;23.342;2024-03-02T12:29:30;31.63;;;19.30;;
52956;SDS011;38819;42.692;23.342;2024-03-02T12:31:55;37.13;;;18.75;;
52956;SDS011;38819;42.692;23.342;2024-03-02T12:34:21;28.83;;;16.88;;
52956;SDS011;38819;42.692;23.342;2024-03-02T12:36:48;28.30;;;17.77;;
52956;SDS011;38819;42.692;23.342;2024-03-02T12:39:21;30.25;;;18.23;;
52956;SDS011;38819;42.692;23.342;2024-03-02T12:41:50;31.00;;;19.35;;
52956;SDS011;38819;42.692;23.342;2024-03-02T12:44:16;34.47;;;19.30;;
52956;SDS011;38819;42.692;23.342;2024-03-02T12:46:42;33.03;;;18.33;;
52956;SDS011;38819;42.692;23.342;2024-03-02T12:49:08;30.33;;;18.30;;
52956;SDS011;38819;42.692;23.342;2024-03-02T12:51:38;30.02;;;18.60;;
52956;SDS011;38819;42.692;23.342;2024-03-02T12:54:06;29.30;;;18.27;;
52956;SDS011;38819;42.692;23.342;2024-03-02T12:56:32;29.38;;;18.20;;
52956;SDS011;38819;42.692;23.342;2024-03-02T12:58:58;26.85;;;17.80;;
52956;SDS011;38819;42.692;23.342;2024-03-02T13:01:24;31.10;;;18.38;;
52956;SDS011;38819;42.692;23.342;2024-03-02T13:03:50;27.05;;;17.05;;
52956;SDS011;38819;42.692;23.342;2024-03-02T13:06:17;28.70;;;16.60;;
52956;SDS011;38819;42.692;23.342;2024-03-02T13:08:44;18.60;;;11.73;;
52956;SDS011;38819;42.692;23.342;2024-03-02T13:11:10;26.77;;;16.05;;
52956;SDS011;38819;42.692;23.342;2024-03-02T13:13:36;30.50;;;17.23;;
52956;SDS011;38819;42.692;23.342;2024-03-02T13:16:03;21.27;;;15.20;;
52956;SDS011;38819;42.692;23.342;2024-03-02T13:18:29;34.23;;;17.27;;
52956;SDS011;38819;42.692;23.342;2024-03-02T13:20:54;25.40;;;16.80;;
52956;SDS011;38819;42.692;23.342;2024-03-02T13:23:21;31.40;;;17.80;;
52956;SDS011;38819;42.692;23.342;2024-03-02T13:25:46;29.05;;;17.17;;
52956;SDS011;38819;42.692;23.342;2024-03-02T13:28:12;29.48;;;18.08;;
52956;SDS011;38819;42.692;23.342;2024-03-02T13:30:38;30.55;;;17.63;;
52956;SDS011;38819;42.692;23.342;2024-03-02T13:33:03;30.30;;;17.27;;
52956;SDS011;38819;42.692;23.342;2024-03-02T13:35:29;26.52;;;16.05;;
52956;SDS011;38819;42.692;23.342;2024-03-02T13:37:54;28.67;;;18.17;;
52956;SDS011;38819;42.692;23.342;2024-03-02T13:40:20;30.13;;;18.10;;
52956;SDS011;38819;42.692;23.342;2024-03-02T13:42:45;25.98;;;17.10;;
52956;SDS011;38819;42.692;23.342;2024-03-02T13:45:12;28.15;;;17.63;;
52956;SDS011;38819;42.692;23.342;2024-03-02T13:47:38;29.75;;;17.95;;
52956;SDS011;38819;42.692;23.342;2024-03-02T13:50:03;29.35;;;18.17;;
52956;SDS011;38819;42.692;23.342;2024-03-02T13:52:30;27.10;;;17.60;;
52956;SDS011;38819;42.692;23.342;2024-03-02T13:54:55;27.33;;;16.95;;
52956;SDS011;38819;42.692;23.342;2024-03-02T13:57:21;27.45;;;16.02;;
52956;SDS011;38819;42.692;23.342;2024-03-02T13:59:46;29.70;;;16.83;;
52956;SDS011;38819;42.692;23.342;2024-03-02T14:02:12;26.48;;;16.23;;
52956;SDS011;38819;42.692;23.342;2024-03-02T14:04:38;25.30;;;16.05;;
52956;SDS011;38819;42.692;23.342;2024-03-02T14:07:04;26.20;;;16.15;;
52956;SDS011;38819;42.692;23.342;2024-03-02T14:09:33;27.45;;;16.38;;
52956;SDS011;38819;42.692;23.342;2024-03-02T14:11:58;28.83;;;16.33;;
52956;SDS011;38819;42.692;23.342;2024-03-02T14:14:27;23.88;;;15.45;;
52956;SDS011;38819;42.692;23.342;2024-03-02T14:16:52;23.63;;;15.63;;